Tiempo atmosférico en la estación meteorológica de Valdepeñas, Ciudad Real (700 m.)



Fecha
DESCASC
Temp. máxima en grados centígrados (hora)
DESCASC
Temp. mínima en grados centígrados (hora)
DESCASC
Temp. media en grados centígrados
DESCASC
Racha de viento máxima en m/sg (hora)
DESCASC
Velocidad máxima media en intervalos de 10 minutos(hora)
DESCASC
Precipitaciones diarias en mm
DESCASC
Precipitaciones de 00:00 a 06:00 en mm
DESCASC
Precipitaciones de 06:00 a 12:00 en mm
DESCASC
Precipitaciones de 12:00 a 18:00 en mm
DESCASC
Precipitaciones de 18:00 a 24:00 en mm
DESCASC
16-06-2019 28.9 (13:00) 11.9 (07:00) 20.4 7.78 (13:20) 3.89 (16:30) 0 0 0 0 0
15-06-2019 26 (19:00) 10.8 (06:50) 18.4 6.67 (15:20) 2.78 (15:40) 0 0 0 0 0
14-06-2019 24.9 (15:30) 15.9 (23:59) 20.4 10.28 (15:10) 4.72 (11:00) 0 0 0 0 0
13-06-2019 27.9 (17:20) 15.2 (00:00) 21.5 7.78 (09:30) 4.17 (09:50) 0 0 0 0 0
12-06-2019 26.9 (17:00) 10.1 (00:00) 18.5 7.78 (18:40) 3.61 (18:40) 0 0 0 0 0
11-06-2019 24.3 (14:50) 13 (00:00) 18.6 -- (--) -- (--) -- 0 -- -- 0
10-06-2019 26.5 (16:30) 12.9 (00:00) 19.7 8.61 (17:20) 2.78 (17:20) 0 0 0 0 0
09-06-2019 27.6 (16:00) 16.1 (00:00) 21.9 8.89 (17:00) 3.61 (04:40) 0 0 0 0 0
08-06-2019 29.8 (17:20) 10.3 (00:00) 20 10 (15:50) 4.72 (13:40) 0 0 0 0 0
07-06-2019 23.6 (19:40) 10.9 (00:00) 17.3 7.78 (13:10) 3.06 (00:30) 0 0 0 0 0
06-06-2019 25.8 (16:30) 10.1 (00:00) 17.9 11.11 (17:10) 6.39 (17:20) 0 0 0 0 0
05-06-2019 21.7 (00:00) 11.6 (00:00) 16.7 9.72 (11:10) 3.61 (06:10) 0 0 0 0 0
04-06-2019 30.6 (16:20) 18.3 (00:00) 24.4 10.83 (16:20) 5.56 (16:20) 0 0 0 0 0
03-06-2019 34.2 (16:50) 20 (00:00) 27.1 10.28 (17:00) 3.89 (19:20) 0 0 0 0 0
02-06-2019 33.2 (16:10) 15.5 (00:00) 24.4 6.11 (15:40) 2.78 (05:30) 0 0 0 0 0
01-06-2019 32.3 (16:20) 14.2 (00:00) 23.2 8.61 (15:20) 3.33 (15:20) 0 0 0 0 0
31-05-2019 31 (16:30) 13.1 (00:00) 22.1 7.78 (16:40) 3.33 (16:40) 0 0 0 0 0
30-05-2019 30.2 (17:00) 12.1 (00:00) 21.2 7.78 (02:10) 3.33 (01:40) 0 0 0 0 0
29-05-2019 26.2 (17:00) 11.6 (00:00) 18.9 9.72 (15:10) 3.89 (12:30) 0 0 0 0 0
28-05-2019 28.3 (19:00) 14.4 (00:00) 21.3 8.89 (18:30) 3.89 (20:20) 0 0 0 0 0
27-05-2019 29.4 (16:40) 11.7 (00:00) 20.5 8.33 (18:10) 2.5 (15:30) 0 0 0 0 0
26-05-2019 25.5 (20:00) 11.4 (00:00) 18.4 8.06 (15:20) 3.61 (15:20) 0 0 0 0 0
25-05-2019 24.2 (17:10) 10.6 (00:00) 17.4 8.33 (17:10) 3.33 (10:10) 0 0 0 0 0
24-05-2019 26.1 (16:20) 15.2 (00:00) 20.7 11.39 (19:10) 4.44 (19:30) 0 0 0 0 0
23-05-2019 28.9 (16:20) 16.1 (00:00) 22.5 7.5 (14:40) 3.33 (14:40) 0 0 0 0 0
22-05-2019 28.2 (17:30) 11.6 (00:00) 19.9 6.39 (17:10) 3.33 (17:10) 0 0 0 0 0

Gráficas

Temp. máximas Temp. mínimas Temp. medias Precipitaciones Rachas de viento máximas Velocidades máximas media en intervalos de 10 minutos

Datos horarios

Fecha y hora oficial Temperatura (ºC) Velocidad del viento (km/h) Dirección del viento Racha (km/h) Dirección de racha Precipitación (mm) Presión (hPa) Tendencia (hPa) Humedad (%)
2019-06-20 23:00:00 22.7 6 Sur 18 Sudoeste 0 933.5 2 38
2019-06-20 22:00:00 24.6 6 Sur 26 Sudoeste 0 932.9 1.4 34
2019-06-20 21:00:00 26.4 12 Sur 25 Sur 0 932 0.5 30
2019-06-20 20:00:00 28.7 7 Sudoeste 21 Sudoeste 0 931.5 -0.1 22
2019-06-20 19:00:00 29.4 10 Sur 26 Sudoeste 0 931.5 -0.6 20
2019-06-20 18:00:00 29.7 9 Sudoeste 27 Sur 0 931.5 -1.2 15
2019-06-20 17:00:00 29.2 5 Sudoeste 23 Sur 0 931.6 -1.8 19
2019-06-20 16:00:00 28.7 5 Sudeste 21 Sur 0 932.1 -1.8 23
2019-06-20 15:00:00 28.4 5 Sudeste 26 Sudeste 0 932.7 -1.5 23
2019-06-20 14:00:00 28.4 6 Sur 21 Sur 0 933.4 -0.9 22
2019-06-20 13:00:00 26.4 5 Sudoeste 19 Sudoeste 0 933.9 -0.6 28
2019-06-20 12:00:00 25.5 4 Oeste 16 Sudoeste 0 934.2 -0.4 32
2019-06-20 11:00:00 24.7 4 Sur 10 Sudeste 0 934.3 -0.3 34
2019-06-20 10:00:00 22.8 3 Sudoeste 9 Sur 0 934.5 0 41
2019-06-20 09:00:00 19.5 2 Sudeste 7 Sudoeste 0 934.6 0.1 51
2019-06-20 08:00:00 16.9 4 Norte 7 Norte 0 934.6 0.2 50
2019-06-20 07:00:00 14.6 2 Norte 9 Norte 0 934.5 0 56
2019-06-20 06:00:00 15 4 Norte 7 Norte 0 934.5 -0.2 57
2019-06-20 05:00:00 16.3 3 Norte 6 Este 0 934.4 -0.6 52
2019-06-20 04:00:00 17.5 5 Este 11 Nordeste 0 934.5 -0.6 50
2019-06-20 03:00:00 18.2 3 Sudeste 7 Sudeste 0 934.7 -0.5 48
2019-06-20 02:00:00 19 2 Sudeste 5 Sudeste 0 935 0 45
2019-06-20 01:00:00 19.9 0 Calma 6 Oeste 0 935.1 0.7 43
2019-06-20 00:00:00 21.2 0 Calma 12 Noroeste 0 935.2 1.3 39
2019-06-19 23:00:00 22.8 5 Noroeste 14 Noroeste 0 935 1.5 34
2019-06-19 22:00:00 24.2 6 Noroeste 19 Oeste 0 934.4 1.4 32
2019-06-19 21:00:00 25.8 4 Oeste 27 Oeste 0 933.9 0.7 28
2019-06-19 20:00:00 27.9 6 Oeste 24 Sudoeste 0 933.5 -0.2 24
2019-06-19 19:00:00 29.2 4 Oeste 19 Sudoeste 0 933 -1.1 21
2019-06-19 18:00:00 29.4 6 Sudoeste 25 Sur 0 933.2 -1.5 19
2019-06-19 17:00:00 29.2 12 Sur 28 Sudoeste 0 933.7 -1.5 18
2019-06-19 16:00:00 29.2 9 Sudoeste 27 Sudoeste 0 934.1 -1.8 19
2019-06-19 15:00:00 28.4 8 Sudoeste 27 Sudoeste 0 934.7 -1.4 23
2019-06-19 14:00:00 27.3 6 Sur 27 Sur 0 935.2 -1 27
2019-06-19 13:00:00 25.9 7 Sur 22 Sur 0 935.9 -0.6 32
2019-06-19 12:00:00 24.1 6 Sudoeste 21 Sudoeste 0 936.1 -0.5 37
2019-06-19 11:00:00 22.5 6 Sur 18 Sudoeste 0 936.2 -0.3 44
2019-06-19 10:00:00 20.5 5 Sudoeste 14 Noroeste 0 936.5 0.4 52
2019-06-19 09:00:00 19 4 Oeste 13 Oeste 0 936.6 0.9 58
2019-06-19 08:00:00 17.4 3 Sur 11 Sudeste 0 936.5 0.9 65
2019-06-19 07:00:00 15.9 6 Sur 10 Sudeste 0 936.1 0.6 67
2019-06-19 06:00:00 16 3 Sudeste 7 Sudeste 0 935.7 0.3 59
2019-06-19 05:00:00 16.4 3 Sudeste 9 Sudeste 0 935.6 0 49
2019-06-19 04:00:00 17.6 4 Sur 6 Sudeste 0 935.5 -0.3 45
2019-06-19 03:00:00 18 5 Sudeste 8 Sudeste 0 935.4 -0.2 40
2019-06-19 02:00:00 18.9 4 Sudeste 9 Sur 0 935.6 0 35
2019-06-19 01:00:00 19.8 4 Sudoeste 14 Sur 0 935.8 0.9 27
2019-06-19 00:00:00 20.3 7 Sudeste 18 Sudeste 0 935.6 1 22
2019-06-18 23:00:00 21.6 9 Sur 23 Sudeste 0 935.6 1.2 14
2019-06-18 22:00:00 23.6 8 Sur 18 Sur 0 934.9 1.1 12
2019-06-18 21:00:00 25.9 9 Sur 25 Sur 0 934.6 0.7 10
2019-06-18 20:00:00 27.6 15 Sur 35 Sur 0 934.4 0.3 10
2019-06-18 19:00:00 28.6 18 Sur 36 Sur 0 933.8 -0.5 9
2019-06-18 18:00:00 29.2 13 Sudoeste 38 Sudeste 0 933.9 -0.6 9
2019-06-18 17:00:00 29.2 16 Sur 40 Sur 0 934.1 -0.4 8
2019-06-18 16:00:00 29.3 18 Sur 38 Sur 0 934.3 -0.6 9
2019-06-18 15:00:00 29.3 19 Sur 40 Sur 0 934.5 -0.6 12
2019-06-18 14:00:00 29.5 15 Sur 37 Sur 0 934.5 -0.8 14
2019-06-18 13:00:00 28.7 19 Sur 40 Sudoeste 0 934.9 -0.5 12
2019-06-18 12:00:00 27.8 11 Sur 33 Sur 0 935.1 -0.5 17
2019-06-18 11:00:00 26.2 8 Sur 20 Sudoeste 0 935.3 -0.2 22
2019-06-18 10:00:00 24.2 8 Sur 19 Sudeste 0 935.4 0.2 30
2019-06-18 09:00:00 21.5 8 Sur 16 Sur 0 935.6 0.5 36
2019-06-18 08:00:00 17.8 2 Nordeste 8 Norte 0 935.5 0.7 42
2019-06-18 07:00:00 16.4 2 Norte 6 Norte 0 935.2 0.4 40
2019-06-18 06:00:00 17.1 2 Norte 8 Sudeste 0 935.1 0.1 36
2019-06-18 05:00:00 18.1 4 Sudeste 10 Sudeste 0 934.8 -0.5 31
2019-06-18 04:00:00 19.1 5 Sudeste 9 Sudeste 0 934.8 -0.2 28
2019-06-18 03:00:00 20 4 Sudeste 8 Sudeste 0 935 -0.2 25
2019-06-18 02:00:00 20.6 4 Sudeste 7 Sudeste 0 935.3 0.3 23
2019-06-18 01:00:00 21.5 5 Sur 10 Sudeste 0 935 0.7 22
2019-06-18 00:00:00 22.6 5 Sudeste 10 Sur 0 935.2 1.3 20
2019-06-17 23:00:00 24.2 5 Sur 13 Sudoeste 0 935 1.2 19
2019-06-17 22:00:00 26.3 6 Sur 15 Sur 0 934.3 0.8 17
2019-06-17 21:00:00 28 8 Sur 25 Sudoeste 0 933.9 0.2 13
2019-06-17 20:00:00 30.1 9 Sur 24 Sur 0 933.8 -0.4 13
2019-06-17 19:00:00 30.2 8 Sur 30 Sur 0 933.5 -1.1 12
2019-06-17 18:00:00 30.6 11 Sur 26 Sudeste 0 933.7 -1.5 12
2019-06-17 17:00:00 30.9 12 Sur 32 Sudeste 0 934.2 -1.9 10
2019-06-17 16:00:00 31.2 5 Sur 28 Sur 0 934.6 -2.2 11
2019-06-17 15:00:00 30.5 9 Sur 25 Sudoeste 0 935.2 -2.1 14
2019-06-17 14:00:00 29.4 6 Sur 21 Sur 0 936.1 -1.5 18
2019-06-17 13:00:00 28.2 8 Sur 20 Sudoeste 0 936.8 -1.1 19
2019-06-17 12:00:00 26.3 4 Sur 14 Sudeste 0 937.3 -0.9 20
2019-06-17 11:00:00 24.4 4 Noroeste 14 Sudoeste 0 937.6 -0.5 22
2019-06-17 10:00:00 22.8 3 Sudoeste 12 Sudoeste 0 937.9 0 26
2019-06-17 09:00:00 19.9 5 Sur 11 Sudeste 0 938.2 0.6 37
2019-06-17 08:00:00 16.1 2 Sur 6 Norte 0 938.1 0.7 44
2019-06-17 07:00:00 13.6 0 Calma 8 Norte 0 937.9 0.5 45
2019-06-17 06:00:00 14.3 5 Norte 12 Nordeste 0 937.6 0.1 39
2019-06-17 05:00:00 14.7 3 Norte 9 Norte 0 937.4 -0.2 37
2019-06-17 04:00:00 16.8 3 Este 8 Sudeste 0 937.4 -0.3 33
2019-06-17 03:00:00 17.4 3 Este 9 Sur 0 937.5 0 29
2019-06-17 02:00:00 18.6 6 Sudeste 9 Sudeste 0 937.6 0.1 27
2019-06-17 01:00:00 19.6 2 Sudoeste 13 Sudeste 0 937.7 0.7 25
2019-06-17 00:00:00 20.2 8 Sur 13 Sur 0 937.5 1 24
2019-06-16 23:00:00 21.1 5 Sudeste 11 Sur 0 937.5 1.2 23
2019-06-16 22:00:00 23.1 7 Sur 15 Sur 0 937 0.9 21
2019-06-16 21:00:00 25.5 6 Sur 25 Sur 0 936.5 0.5 17
2019-06-16 20:00:00 27.1 11 Sur 26 Sur 0 936.3 0.2 14
2019-06-16 19:00:00 27.5 12 Sur 26 Sur 0 936.1 -0.3 13
2019-06-16 18:00:00 28 12 Sur 23 Sur 0 936 -0.5 11
2019-06-16 17:00:00 28.1 8 Sur 26 Sudoeste 0 936.1 -0.8 11
2019-06-16 16:00:00 28.5 8 Sur 23 Sur 0 936.4 -0.8 12
2019-06-16 15:00:00 28.6 9 Sudoeste 24 Sur 0 936.5 -1.1 12
2019-06-16 14:00:00 28.4 11 Sur 28 Sur 0 936.9 -1 12
2019-06-16 13:00:00 28.8 9 Sur 25 Sur 0 937.2 -0.4 12
2019-06-16 12:00:00 26.7 3 Sur 14 Sur 0 937.6 -0.1 17
2019-06-16 11:00:00 24.6 6 Sur 13 Sur 0 937.9 0.3 20
2019-06-16 10:00:00 22.2 2 Sudeste 9 Sur 0 937.6 0.5 23
2019-06-16 09:00:00 17.5 2 Sudeste 4 Sudoeste 0 937.7 0.9 32
2019-06-16 08:00:00 14 3 Sur 8 Nordeste 0 937.6 0.8 39
2019-06-16 07:00:00 12 0 Calma 5 Norte 0 937.1 0.1 41
2019-06-16 06:00:00 12.5 2 Norte 4 Norte 0 936.8 -0.6 38
2019-06-16 05:00:00 12.9 2 Sudeste 5 Sudeste 0 936.8 -1.4 38
2019-06-16 04:00:00 14 0 Calma 7 Sur 0 937 -1.4 33
2019-06-16 03:00:00 15.1 2 Nordeste 10 Nordeste 0 937.4 -1.1 31
2019-06-16 02:00:00 15.9 0 Calma 9 Nordeste 0 938.2 -0.1 30
2019-06-16 01:00:00 17.2 0 Calma 6 Norte 0 938.4 0.8 27
2019-06-16 00:00:00 18.3 2 Norte 5 Sudeste 0 938.5 1.5 26
2019-06-15 23:00:00 20.5 0 Calma 6 Noroeste 0 938.3 1.6 22
2019-06-15 22:00:00 22.3 4 Noroeste 9 Oeste 0 937.6 1.1 19
2019-06-15 21:00:00 24.3 4 Oeste 13 Oeste 0 937 0.5 16
2019-06-15 20:00:00 25.9 4 Oeste 16 Noroeste 0 936.7 -0.2 15
2019-06-15 19:00:00 25.9 6 Oeste 18 Oeste 0 936.5 -0.9 16
2019-06-15 18:00:00 25.6 5 Oeste 18 Oeste 0 936.5 -1.3 16
2019-06-15 17:00:00 25.4 8 Noroeste 18 Sudoeste 0 936.9 -1.5 17
2019-06-15 16:00:00 25.1 6 Sudoeste 24 Sudoeste 0 937.4 -1.5 18
2019-06-15 15:00:00 24.3 5 Oeste 21 Sudeste 0 937.8 -1.3 20
2019-06-15 14:00:00 23.4 5 Norte 17 Sudoeste 0 938.4 -0.9 23
2019-06-15 13:00:00 22.1 6 Sudoeste 19 Sur 0 938.9 -0.3 25
2019-06-15 12:00:00 20.4 6 Oeste 19 Sur 0 939.1 -0.1 29
2019-06-15 11:00:00 18.6 5 Sudoeste 17 Noroeste 0 939.3 0.4 33
2019-06-15 10:00:00 17.2 5 Oeste 11 Noroeste 0 939.2 0.6 37
2019-06-15 09:00:00 15.1 2 Sudoeste 9 Sudoeste 0 939.2 1 47
2019-06-15 08:00:00 12.7 3 Sur 7 Sur 0 938.9 1.1 50
2019-06-15 07:00:00 10.9 4 Sudeste 7 Sudeste 0 938.6 0.8 54
2019-06-15 06:00:00 11.1 4 Sudeste 6 Sudeste 0 938.2 0.4 52
2019-06-15 05:00:00 11.7 3 Sudeste 8 Sur 0 937.8 -0.1 50
2019-06-15 04:00:00 12.4 4 Sur 7 Sudoeste 0 937.8 0.1 47
2019-06-15 03:00:00 13.4 2 Sur 13 Sudoeste 0 937.8 0.2 44
2019-06-15 02:00:00 14.5 5 Sudoeste 11 Sudoeste 0 937.9 0.8 41
2019-06-15 01:00:00 15.1 5 Sur 10 Sudoeste 0 937.7 1.3 39
2019-06-15 00:00:00 15.9 3 Sudoeste 13 Oeste 0 937.6 2.6 37
2019-06-14 23:00:00 17.1 3 Oeste 14 Oeste 0 937.1 3 32
2019-06-14 22:00:00 18.5 4 Oeste 22 Sudoeste 0 936.4 3 30
2019-06-14 21:00:00 21.3 13 Sur 31 Sur 0 935 1.7 28
2019-06-14 20:00:00 23.3 15 Sur 31 Sur 0 934.1 0.7 25
2019-06-14 19:00:00 24.3 12 Sur 34 Sur 0 933.4 -0.1 21
2019-06-14 18:00:00 24.2 13 Sur 37 Sur 0 933.3 -0.3 21
2019-06-14 17:00:00 24.4 13 Sur 35 Sudoeste 0 933.4 -0.1 20
2019-06-14 16:00:00 24.6 12 Sudoeste 37 Sudoeste 0 933.5 -0.2 19
2019-06-14 15:00:00 24.3 15 Sur 36 Sur 0 933.6 0.1 25
2019-06-14 14:00:00 23.9 15 Sur 36 Sur 0 933.5 0.2 24
2019-06-14 13:00:00 23 14 Sur 34 Sur 0 933.7 0.4 28
2019-06-14 12:00:00 22.1 17 Sur 36 Sur 0 933.5 0.4 31
2019-06-14 11:00:00 20.6 17 Sur 34 Sudoeste 0 933.3 0.5 39
2019-06-14 10:00:00 19.4 12 Sur 30 Sur 0 933.3 1.2 37
2019-06-14 09:00:00 19.3 9 Sur 19 Sur 0 933.1 1.3 29
2019-06-14 08:00:00 17.4 4 Sur 12 Sudeste 0 932.8 1.5 30
2019-06-14 07:00:00 17.6 2 Sudoeste 10 Sur 0 932.1 1 29
2019-06-14 06:00:00 17.8 5 Sudoeste 19 Sudoeste 0 931.8 0.9 28
2019-06-14 05:00:00 18.4 3 Sudoeste 17 Sudoeste 0 931.3 0.6 27
2019-06-14 04:00:00 18.7 5 Sur 14 Sudoeste 0 931.1 0.4 31
2019-06-14 03:00:00 20.1 5 Sudoeste 18 Sur 0 930.9 0.4 26
2019-06-14 02:00:00 21 8 Sudoeste 21 Sudoeste 0 930.7 0.5 28
2019-06-14 01:00:00 21.6 5 Sudoeste 22 Sur 0 930.7 1.3 27
2019-06-14 00:00:00 22.9 12 Sur 24 Sur 0 930.5 2.1 35
2019-06-13 23:00:00 23.7 12 Sur 23 Sur 0 930.2 2.2 32
2019-06-13 22:00:00 24.6 12 Sur 23 Sudoeste 0 929.4 1.6 28
2019-06-13 21:00:00 25.8 9 Sur 21 Sur 0 928.4 0.5 25
2019-06-13 20:00:00 27 8 Sur 21 Sur 0 928 -0.3 23
2019-06-13 19:00:00 27.1 7 Sur 22 Sudeste 0 927.8 -1.1 23
2019-06-13 18:00:00 27.8 8 Sur 24 Sur 0 927.9 -1.4 22
2019-06-13 17:00:00 27.4 9 Sur 23 Sudeste 0 928.3 -1.4 24
2019-06-13 16:00:00 27.4 10 Sur 26 Sur 0 928.9 -1.4 26
2019-06-13 15:00:00 26.7 8 Sudoeste 28 Sudeste 0 929.3 -1.4 29
2019-06-13 14:00:00 26.1 5 Sudeste 22 Sur 0 929.7 -1.3 28
2019-06-13 13:00:00 25.5 9 Sur 21 Sudoeste 0 930.3 -0.6 29
2019-06-13 12:00:00 24.1 8 Sur 23 Sur 0 930.7 -0.4 36
2019-06-13 11:00:00 22.2 11 Sur 27 Sur 0 931 0.4 41
2019-06-13 10:00:00 20.8 15 Sur 28 Sur 0 930.9 0.6 44
2019-06-13 09:00:00 18.8 14 Sudeste 25 Sudeste 0 931.1 1 50
2019-06-13 08:00:00 16.4 5 Sudeste 17 Este 0 930.6 0.9 61
2019-06-13 07:00:00 15.3 4 Este 17 Sudeste 0 930.3 0.6 62
2019-06-13 06:00:00 15.6 7 Sudeste 16 Sudeste 0 930.1 0.2 58
2019-06-13 05:00:00 17.1 7 Sudeste 22 Sudeste 0 929.7 -0.2 48
2019-06-13 04:00:00 17.6 6 Sudeste 18 Sudeste 0 929.7 -0.5 38
2019-06-13 03:00:00 16.7 4 Sudeste 11 Sudeste 0 929.9 -0.2 37
2019-06-13 02:00:00 17.7 6 Sudeste 10 Sudeste 0 929.9 -0.2 35
2019-06-13 01:00:00 18.6 3 Sudeste 14 Sudeste 0 930.2 0.6 32
2019-06-13 00:00:00 19.6 6 Sudeste 13 Sudeste 0 930.1 0.9 29
2019-06-12 23:00:00 20.5 6 Sur 14 Sudeste 0 930.1 1 27
2019-06-12 22:00:00 22.1 7 Sudeste 17 Sur 0 929.6 0.6 25
2019-06-12 21:00:00 24.1 8 Sur 20 Sudeste 0 929.2 -0.2 20
2019-06-12 20:00:00 25.3 10 Sudeste 21 Sudoeste 0 929.1 -0.7 18
2019-06-12 19:00:00 26 8 Sur 28 Sur 0 929 -1.3 18
2019-06-12 18:00:00 25.8 11 Sur 28 Sudeste 0 929.4 -1.2 19
2019-06-12 17:00:00 26.6 8 Sur 25 Sudoeste 0 929.8 -1.6 20
2019-06-12 16:00:00 25.6 4 Nordeste 22 Sudoeste 0 930.3 -1.6 21
2019-06-12 15:00:00 25.8 4 Norte 21 Sur 0 930.6 -2 22
2019-06-12 14:00:00 24.7 10 Sur 27 Sur 0 931.4 -1.4 20
2019-06-12 13:00:00 23.1 6 Oeste 21 Sudoeste 0 931.9 -1 20
2019-06-12 12:00:00 22.6 9 Sur 22 Sudoeste 0 932.6 -0.2 20
2019-06-12 11:00:00 21.3 5 Este 12 Sur 0 932.8 0.1 21
2019-06-12 10:00:00 19.1 3 Sur 8 Sur 0 932.9 0.5 43
2019-06-12 09:00:00 14.8 2 Sur 11 Nordeste 0 932.8 0.5 51
2019-06-12 08:00:00 12.3 4 Nordeste 12 Nordeste 0 932.7 0.7 56
2019-06-12 07:00:00 10.3 2 Norte 6 Nordeste 0 932.4 0.4 62
2019-06-12 06:00:00 10.7 3 Norte 9 Nordeste 0 932.3 0.2 61
2019-06-12 05:00:00 11.5 4 Nordeste 13 Nordeste 0 932 -0.4 61
2019-06-12 04:00:00 12 5 Nordeste 15 Nordeste 0 932 -0.7 62
2019-06-12 03:00:00 12.4 7 Nordeste 15 Nordeste 0 932.1 -0.9 56
2019-06-12 02:00:00 13.5 4 Nordeste 11 Norte 0 932.4 -0.6 36
2019-06-12 01:00:00 15.3 5 Norte 14 Nordeste 0 932.7 0.1 27
2019-06-12 00:00:00 16.2 5 Norte 18 Noroeste 0 933 0.9 25
2019-06-11 23:00:00 17.6 8 Norte 21 Norte 0 933 1.3 25
2019-06-11 22:00:00 18.4 7 Norte 21 Noroeste 0 932.6 1.5 27
2019-06-11 21:00:00 19.5 9 Noroeste 28 Norte 0 932.1 1.2 26
2019-06-11 20:00:00 20.4 13 Noroeste 33 Noroeste 0 931.7 1.3 26
2019-06-11 19:00:00 21.3 11 Norte 36 Noroeste 0 931.1 1.1 27
2019-06-11 18:00:00 21.4 15 Noroeste 38 Norte 0 930.9 0.9 27
2019-06-11 17:00:00 22.5 11 Norte 35 Noroeste 0 930.4 0.3 27
2019-06-11 16:00:00 22.8 16 Noroeste 32 Noroeste 0 930 -0.2 26
2019-06-11 15:00:00 23.9 8 Noroeste 28 Oeste 0 930 -0.4 25
2019-06-11 14:00:00 23.7 7 Oeste 27 Oeste 0 930.1 -0.4 26
2019-06-11 13:00:00 22.9 8 Oeste -- -- -- 930.2 -0.6 26
2019-06-11 12:00:00 22.2 -- -- -- -- -- 930.4 -0.6 26
2019-06-11 11:00:00 20.5 7 Sur 21 Sur 0 930.5 -0.5 29
2019-06-11 10:00:00 18.1 6 Sur 16 Sudoeste 0 930.8 -0.3 39
2019-06-11 09:00:00 15.3 7 Sur 13 Sur 0 931 -0.1 51
2019-06-11 08:00:00 13.6 5 Sur 14 Sudeste 0 931 -0.4 61
2019-06-11 07:00:00 13.3 6 Sudeste 12 Sur 0 931.1 -0.9 53
2019-06-11 06:00:00 14.3 7 Sudeste 15 Sudeste 0 931.1 -1.2 44
2019-06-11 05:00:00 15.1 7 Sur 12 Sudeste 0 931.4 -1.4 34
2019-06-11 04:00:00 16.4 5 Sur 12 Sudeste 0 932 -1 30
2019-06-11 03:00:00 16.9 5 Sur 12 Sur 0 932.3 -1 29
2019-06-11 02:00:00 17.6 6 Sudeste 12 Sudeste 0 932.8 -0.3 28
2019-06-11 01:00:00 18.7 6 Sur 15 Sudoeste 0 933 0.3 27
2019-06-11 00:00:00 20.1 6 Sur 12 Sudoeste 0 933.3 0.8 26
2019-06-10 23:00:00 21.6 5 Sur 15 Sudoeste 0 933.1 0.7 23
2019-06-10 22:00:00 23.3 8 Sudoeste 18 Sudoeste 0 932.7 -0.1 19
2019-06-10 21:00:00 25.1 6 Sudoeste 21 Sudoeste 0 932.5 -0.5 18
2019-06-10 20:00:00 25.7 7 Sudoeste 28 Sudoeste 0 932.4 -1 17
2019-06-10 19:00:00 25.9 5 Oeste 21 Oeste 0 932.8 -1.1 17
2019-06-10 18:00:00 26 6 Sudoeste 31 Sudoeste 0 933 -1.7 14
2019-06-10 17:00:00 26 5 Sudoeste 26 Sudoeste 0 933.4 -1.8 17
2019-06-10 16:00:00 25.3 6 Oeste 22 Sudoeste 0 933.9 -1.6 18
2019-06-10 15:00:00 24.6 6 Noroeste 19 Sur 0 934.7 -1.1 19
2019-06-10 14:00:00 23.9 5 Sudoeste 19 Sudoeste 0 935.2 -1 20
2019-06-10 13:00:00 23.1 4 Sudoeste 19 Sudoeste 0 935.5 -0.6 23
2019-06-10 12:00:00 21.9 5 Oeste 18 Sur 0 935.8 -0.6 26
2019-06-10 11:00:00 20.5 6 Sur 16 Sur 0 936.2 0 31
2019-06-10 10:00:00 18.6 6 Sur 15 Sur 0 936.1 0.5 38
2019-06-10 09:00:00 15.4 5 Sur 9 Sur 0 936.4 0.6 47
2019-06-10 08:00:00 13.5 3 Sudeste 5 Sudeste 0 936.2 -0.1 50
2019-06-10 07:00:00 13 5 Sudeste 9 Sudeste 0 935.6 -0.8 50
2019-06-10 06:00:00 14.3 3 Sudeste 9 Sur 0 935.8 -0.7 46
2019-06-10 05:00:00 15.2 4 Sur 10 Sudoeste 0 936.3 -0.2 43
2019-06-10 04:00:00 16.1 6 Sur 15 Sur 0 936.4 -0.1 40
2019-06-10 03:00:00 16 4 Sudeste 9 Sudoeste 0 936.5 0.2 38
2019-06-10 02:00:00 17.2 5 Sudoeste 15 Sudoeste 0 936.5 0.6 31
2019-06-10 01:00:00 17.8 5 Sur 8 Sur 0 936.5 1.2 27
2019-06-10 00:00:00 19 4 Sur 10 Sudoeste 0 936.3 1.7 24
2019-06-09 23:00:00 20.9 3 Oeste 17 Oeste 0 935.9 1.5 21
2019-06-09 22:00:00 22.8 6 Oeste 21 Oeste 0 935.3 1.2 18
2019-06-09 21:00:00 24.9 7 Sudoeste 24 Oeste 0 934.6 0.4 14
2019-06-09 20:00:00 26 8 Sudoeste 27 Sudoeste 0 934.4 -0.1 15
2019-06-09 19:00:00 26.6 8 Oeste 32 Sudoeste 0 934.1 -0.8 17
2019-06-09 18:00:00 26.5 7 Sudoeste 28 Sudoeste 0 934.2 -1.3 19
2019-06-09 17:00:00 27.6 9 Sudoeste 32 Sudoeste 0 934.5 -1.6 19
2019-06-09 16:00:00 27.4 10 Sudoeste 26 Sur 0 934.9 -1.7 19
2019-06-09 15:00:00 26.7 9 Sudoeste 24 Sur 0 935.5 -1.3 21
2019-06-09 14:00:00 26 6 Sudoeste 24 Sur 0 936.1 -1 22
2019-06-09 13:00:00 24.9 9 Sudoeste 26 Sudoeste 0 936.6 -0.6 22
2019-06-09 12:00:00 23.9 9 Sur 22 Sur 0 936.8 -0.4 22
2019-06-09 11:00:00 22.2 7 Sudoeste 19 Sur 0 937.1 0.1 22
2019-06-09 10:00:00 20.5 8 Sur 21 Sur 0 937.2 0.6 28
2019-06-09 09:00:00 17.9 7 Sur 15 Sur 0 937.2 0.6 44
2019-06-09 08:00:00 16.1 6 Sur 11 Sur 0 937 0.5 52
2019-06-09 07:00:00 17.3 5 Sur 13 Sur 0 936.6 0 49
2019-06-09 06:00:00 18.3 8 Sur 13 Sudeste 0 936.6 -0.1 46
2019-06-09 05:00:00 19.3 5 Sur 24 Sur 0 936.5 -0.1 42
2019-06-09 04:00:00 20.2 8 Sudeste 17 Sur 0 936.6 -0.3 39
2019-06-09 03:00:00 21.4 8 Sur 17 Sur 0 936.7 -0.2 34
2019-06-09 02:00:00 21.8 8 Sur 17 Sur 0 936.6 0.3 32
2019-06-09 01:00:00 22.3 7 Sur 13 Sur 0 936.9 1.3 30
2019-06-09 00:00:00 22.8 6 Sur 13 Sudeste 0 936.9 1.7 30
2019-06-08 23:00:00 23.8 4 Sur 11 Sudoeste 0 936.3 1.5 27
2019-06-08 22:00:00 25.6 6 Sur 18 Sudoeste 0 935.6 0.8 23
2019-06-08 21:00:00 26.9 8 Sudoeste 24 Sudoeste 0 935.2 -0.2 20
2019-06-08 20:00:00 28.7 10 Sudoeste 28 Sudoeste 0 934.8 -0.8 18
2019-06-08 19:00:00 29.4 12 Sur 26 Sudeste 0 934.8 -1.4 16
2019-06-08 18:00:00 29.1 15 Sur 31 Sur 0 935.4 -1.4 17
2019-06-08 17:00:00 29.5 13 Sur 27 Sur 0 935.6 -1.5 16
2019-06-08 16:00:00 28.4 12 Sur 36 Sur 0 936.2 -1 16
2019-06-08 15:00:00 28.4 14 Sur 33 Sur 0 936.8 -0.7 17
2019-06-08 14:00:00 28 13 Sur 33 Sur 0 937.1 -0.8 16
2019-06-08 13:00:00 27.5 8 Sudeste 22 Sudeste 0 937.2 -0.9 18
2019-06-08 12:00:00 25.9 5 Sudeste 14 Sur 0 937.5 -0.4 21
2019-06-08 11:00:00 23 3 Nordeste 8 Este 0 937.9 0.2 23
2019-06-08 10:00:00 18.4 3 Noroeste 8 Nordeste 0 938.1 0.6 24
2019-06-08 09:00:00 13.3 2 Sur 6 Sur 0 937.9 0.3 33
2019-06-08 08:00:00 11.2 0 Calma 4 Sur 0 937.7 -0.1 34
2019-06-08 07:00:00 10.3 0 Calma 6 Sudeste 0 937.5 -0.4 34
2019-06-08 06:00:00 10.9 2 Sudeste 4 Sudeste 0 937.6 -0.5 32
2019-06-08 05:00:00 11.6 0 Calma 4 Sudeste 0 937.8 -0.5 31
2019-06-08 04:00:00 12.3 0 Calma 8 Norte 0 937.9 -0.4 28
2019-06-08 03:00:00 12.8 4 Norte 9 Norte 0 938.1 -0.2 26
2019-06-08 02:00:00 14.2 3 Norte 7 Norte 0 938.3 0.6 24
2019-06-08 01:00:00 15.8 0 Calma 5 Norte 0 938.3 1.2 23
2019-06-08 00:00:00 17.6 0 Calma 7 Norte 0 938.3 1.6 20
2019-06-07 23:00:00 20.2 4 Noroeste 14 Noroeste 0 937.7 1.4 14
2019-06-07 22:00:00 21.3 4 Noroeste 12 Oeste 0 937.1 1 14
2019-06-07 21:00:00 23.2 3 Oeste 16 Oeste 0 936.7 0.6 13
2019-06-07 20:00:00 23.3 4 Oeste 17 Oeste 0 936.3 0.1 13
2019-06-07 19:00:00 23.1 5 Noroeste 19 Sudoeste 0 936.1 -0.1 13
2019-06-07 18:00:00 22.9 8 Oeste 21 Noroeste 0 936.1 -0.1 13
2019-06-07 17:00:00 23.1 5 Oeste 21 Noroeste 0 936.2 0 14
2019-06-07 16:00:00 22.9 6 Oeste 18 Sudoeste 0 936.2 -0.1 16
2019-06-07 15:00:00 21.7 8 Sudoeste 26 Sudoeste 0 936.2 0 18
2019-06-07 14:00:00 20.3 5 Sur 28 Sur 0 936.2 0.2 25
2019-06-07 13:00:00 18.6 9 Sudoeste 24 Sur 0 936.3 0.6 33
2019-06-07 12:00:00 17.2 5 Sudoeste 21 Sur 0 936.2 1.1 38
2019-06-07 11:00:00 14.6 5 Sudoeste 18 Sur 0 936 1.7 45
2019-06-07 10:00:00 13 6 Sudoeste 23 Sudoeste 0 935.7 2.6 46
2019-06-07 09:00:00 12.2 7 Sudoeste 21 Sudoeste 0 935.1 2.6 59
2019-06-07 08:00:00 10.9 5 Sudoeste 24 Oeste 0 934.3 2.2 79
2019-06-07 07:00:00 13.5 7 Sur 14 Sudeste 0 933.1 1.1 59
2019-06-07 06:00:00 13.2 5 Sudeste 14 Sudeste 0 932.5 0.9 55
2019-06-07 05:00:00 13.9 10 Sudeste 18 Sudeste 0 932.1 0.4 53
2019-06-07 04:00:00 14.4 8 Sudeste 19 Sur 0 932 0.7 42
2019-06-07 03:00:00 15.1 9 Sur 17 Sur 0 931.6 0.8 33
2019-06-07 02:00:00 16.5 6 Sur 21 Sur 0 931.7 1.2 22
2019-06-07 01:00:00 17.4 8 Sur 22 Sur 0 931.3 1.3 19
2019-06-07 00:00:00 19.1 10 Sur 22 Sur 0 930.8 1 18
2019-06-06 23:00:00 20.2 9 Sur 22 Sur 0 930.5 1.1 17
2019-06-06 22:00:00 21.6 10 Sur 31 Sur 0 930 0.6 13
2019-06-06 21:00:00 23.8 13 Sur 39 Sur 0 929.8 0 11
2019-06-06 20:00:00 24.7 18 Sur 36 Sur 0 929.4 -0.9 10
2019-06-06 19:00:00 25.3 15 Sur 38 Sur 0 929.4 -1.6 12
2019-06-06 18:00:00 25.5 19 Sur 40 Sur 0 929.8 -2 9
2019-06-06 17:00:00 25.6 16 Sur 36 Sudoeste 0 930.3 -2.1 11
2019-06-06 16:00:00 25.2 15 Sur 37 Sudoeste 0 931 -1.8 12
2019-06-06 15:00:00 24 14 Sur 31 Sur 0 931.8 -1.4 15
2019-06-06 14:00:00 22.9 14 Sur 30 Sudeste 0 932.4 -1.2 16
2019-06-06 13:00:00 21.8 8 Sur 24 Sur 0 932.8 -1.2 21
2019-06-06 12:00:00 20.6 5 Este 20 Sudeste 0 933.2 -0.9 25
2019-06-06 11:00:00 18.8 3 Sudeste 11 Este 0 933.6 -0.5 28
2019-06-06 10:00:00 16.1 2 Sudoeste 8 Sur 0 934 0 33
2019-06-06 09:00:00 13.1 4 Sur 7 Sur 0 934.1 0.1 41
2019-06-06 08:00:00 10.9 3 Sudeste 5 Sudeste 0 934.1 0.2 47
2019-06-06 07:00:00 10.6 0 Calma 5 Sur 0 934 0 46
2019-06-06 06:00:00 10.9 0 Calma 7 Sudeste 0 934 -0.1 42
2019-06-06 05:00:00 11.7 4 Sudeste 9 Sudeste 0 933.9 -0.3 39
2019-06-06 04:00:00 12 3 Sudeste 5 Sudeste 0 934 -0.4 37
2019-06-06 03:00:00 12.7 2 Sudeste 6 Este 0 934.1 -0.3 36
2019-06-06 02:00:00 13.7 4 Sudeste 8 Sudoeste 0 934.2 0.2 33
2019-06-06 01:00:00 14.3 3 Sur 9 Sur 0 934.4 1 31
2019-06-06 00:00:00 15.1 3 Sudeste 9 Sudoeste 0 934.4 1.4 29
2019-06-05 23:00:00 17 2 Sudoeste 14 Sudoeste 0 934 1.1 26
2019-06-05 22:00:00 18.3 3 Sudoeste 18 Oeste 0 933.4 0.6 23
2019-06-05 21:00:00 20.1 4 Sudoeste 22 Sudoeste 0 933 0.3 21
2019-06-05 20:00:00 20.2 6 Sudoeste 23 Sudoeste 0 932.9 0 21
2019-06-05 19:00:00 20.2 6 Sudoeste 23 Sudoeste 0 932.8 -0.2 20
2019-06-05 18:00:00 20.2 5 Oeste 25 Sudoeste 0 932.7 -0.4 21
2019-06-05 17:00:00 20.6 9 Oeste 27 Oeste 0 932.9 -0.3 21
2019-06-05 16:00:00 21 9 Sudoeste 31 Sudoeste 0 933 -0.4 20
2019-06-05 15:00:00 20.4 9 Sudoeste 32 Sudoeste 0 933.1 0 22
2019-06-05 14:00:00 19.5 9 Oeste 32 Sudoeste 0 933.2 0 23
2019-06-05 13:00:00 18.2 9 Sudoeste 35 Sudoeste 0 933.4 0.5 28
2019-06-05 12:00:00 16.5 11 Sudoeste 35 Sur 0 933.1 0.5 34
2019-06-05 11:00:00 15.3 8 Sudoeste 32 Sudoeste 0 933.2 1.1 38
2019-06-05 10:00:00 14.3 8 Sudoeste 27 Sudoeste 0 932.9 1.8 44
2019-06-05 09:00:00 12.1 9 Sudoeste 26 Sudoeste 0 932.6 2.3 56
2019-06-05 08:00:00 11.6 8 Sudoeste 25 Sudoeste 0 932.1 1.9 57
2019-06-05 07:00:00 12.7 10 Sudoeste 29 Sudoeste 0 931.1 0.7 53
2019-06-05 06:00:00 14.9 13 Sudoeste 32 Sudoeste 0 930.3 0.1 54
2019-06-05 05:00:00 15.6 5 Sudoeste 19 Oeste 0 930.2 -0.1 57
2019-06-05 04:00:00 16.7 6 Sudoeste 25 Sudoeste 0 930.4 0.2 54
2019-06-05 03:00:00 18.4 10 Sudoeste 28 Sudoeste 0 930.2 0 55
2019-06-05 02:00:00 19.9 7 Sudoeste 23 Sudoeste 0 930.3 0.7 48
2019-06-05 01:00:00 20.5 7 Sudoeste 18 Sudoeste 0 930.2 1.5 44
2019-06-05 00:00:00 21.7 4 Sudoeste 16 Sudoeste 0 930.2 1.6 40
2019-06-04 23:00:00 23.4 5 Sudoeste 24 Sur 0 929.6 0.9 34
2019-06-04 22:00:00 25.9 11 Sur 30 Sur 0 928.7 -0.5 27
2019-06-04 21:00:00 27.2 12 Sur 38 Sur 0 928.6 -0.9 24
2019-06-04 20:00:00 28.5 15 Sur 31 Sur 0 928.7 -1.5 19
2019-06-04 19:00:00 29.1 16 Sur 36 Sur 0 929.2 -1.6 17
2019-06-04 18:00:00 29.6 15 Sur 37 Sudeste 0 929.5 -2.3 17
2019-06-04 17:00:00 30.1 17 Sur 39 Sur 0 930.2 -2.2 14
2019-06-04 16:00:00 30 17 Sur 34 Sur 0 930.8 -1.9 12
2019-06-04 15:00:00 29.4 15 Sur 38 Sur 0 931.8 -1.1 14
2019-06-04 14:00:00 28.7 19 Sur 35 Sur 0 932.4 -0.7 14
2019-06-04 13:00:00 28.7 12 Sur 30 Sur 0 932.7 -0.7 14
2019-06-04 12:00:00 27.9 9 Sur 28 Sur 0 932.9 -0.5 17
2019-06-04 11:00:00 26.2 10 Sur 23 Sudeste 0 933.1 -0.3 25
2019-06-04 10:00:00 23.5 6 Sudeste 17 Sudeste 0 933.4 0.1 28
2019-06-04 09:00:00 20 4 Este 10 Este 0 933.4 0.1 33
2019-06-04 08:00:00 18.7 2 Nordeste 11 Sudeste 0 933.4 -0.1 35
2019-06-04 07:00:00 18.6 4 Sudeste 13 Sudeste 0 933.3 -0.4 33
2019-06-04 06:00:00 19.3 4 Sudeste 12 Sudeste 0 933.3 -0.6 31
2019-06-04 05:00:00 20.2 4 Sudeste 13 Sudeste 0 933.5 -0.6 26
2019-06-04 04:00:00 21.2 2 Sudoeste 10 Sudeste 0 933.7 -0.8 21
2019-06-04 03:00:00 21.4 5 Sudeste 10 Sudeste 0 933.9 -0.6 21
2019-06-04 02:00:00 22.1 4 Sudeste 9 Sudeste 0 934.1 -0.1 20
2019-06-04 01:00:00 23.4 5 Sudeste 11 Sur 0 934.5 0.8 19
2019-06-04 00:00:00 25 8 Sudeste 15 Sudeste 0 934.5 0.9 17
2019-06-03 23:00:00 26.1 8 Sudeste 13 Sur 0 934.2 0.6 15
2019-06-03 22:00:00 29.2 8 Sur 22 Sur 0 933.7 -0.2 12
2019-06-03 21:00:00 31.5 10 Sur 26 Sur 0 933.6 -0.7 11
2019-06-03 20:00:00 32.3 13 Sur 31 Sur 0 933.6 -1 11
2019-06-03 19:00:00 33.1 9 Sur 29 Sur 0 933.9 -1.2 11
2019-06-03 18:00:00 33 5 Sudeste 26 Sudoeste 0 934.3 -1.6 12
2019-06-03 17:00:00 34.1 14 Sur 37 Sudeste 0 934.6 -2 10
2019-06-03 16:00:00 33.7 8 Sur 19 Sudoeste 0 935.1 -2 10
2019-06-03 15:00:00 32.1 5 Sudoeste 21 Sur 0 935.9 -1.5 11
2019-06-03 14:00:00 31.2 5 Oeste 20 Noroeste 0 936.6 -1 12
2019-06-03 13:00:00 31.8 5 Noroeste 13 Noroeste 0 937.1 -0.4 12
2019-06-03 12:00:00 29.5 3 Sudoeste 13 Sudoeste 0 937.4 0.2 14
2019-06-03 11:00:00 27.1 2 Sur 10 Sur 0 937.6 0.7 17
2019-06-03 10:00:00 24.6 3 Este 9 Sur 0 937.5 0.7 21
2019-06-03 09:00:00 22.1 4 Este 10 Sudeste 0 937.2 0.5 23
2019-06-03 08:00:00 20.4 7 Sur 15 Sudeste 0 936.9 0.3 24
2019-06-03 07:00:00 20.8 8 Sur 19 Sur 0 936.8 0.1 26
2019-06-03 06:00:00 20 6 Sur 15 Sudeste 0 936.7 0 28
2019-06-03 05:00:00 21.1 9 Sudeste 19 Sudeste 0 936.6 -0.6 25
2019-06-03 04:00:00 21.8 8 Sur 19 Sudeste 0 936.7 -0.5 24
2019-06-03 03:00:00 23 6 Sudeste 15 Sudeste 0 936.7 -0.4 22
2019-06-03 02:00:00 23.6 4 Sur 22 Sudeste 0 937.2 0.6 22
2019-06-03 01:00:00 25 5 Sudeste 14 Este 0 937.2 1.4 21
2019-06-03 00:00:00 25.6 7 Este 14 Este 0 937.1 1.6 20
2019-06-02 23:00:00 26.7 4 Este 12 Sudeste 0 936.6 1.2 17
2019-06-02 22:00:00 28.9 0 Calma 5 Este 0 935.8 0.2 14
2019-06-02 21:00:00 31.6 3 Este 9 Oeste 0 935.5 -0.4 12
2019-06-02 20:00:00 32.4 3 Noroeste 14 Sudoeste 0 935.4 -1 11
2019-06-02 19:00:00 32.3 4 Sudoeste 16 Sudeste 0 935.6 -1.2 11
2019-06-02 18:00:00 32.2 3 Sudoeste 19 Sur 0 935.9 -1.5 12
2019-06-02 17:00:00 32.2 7 Oeste 19 Sur 0 936.4 -1.8 12
2019-06-02 16:00:00 33.1 5 Norte 22 Norte 0 936.8 -2 12
2019-06-02 15:00:00 32.1 4 Norte 13 Sur 0 937.4 -1.5 13
2019-06-02 14:00:00 31.1 5 Nordeste 12 Norte 0 938.2 -0.8 14
2019-06-02 13:00:00 29.4 5 Noroeste 14 Oeste 0 938.8 -0.1 14
2019-06-02 12:00:00 27.8 5 Noroeste 13 Oeste 0 938.9 0.2 16
2019-06-02 11:00:00 26.4 3 Oeste 9 Sur 0 939 0.5 19
2019-06-02 10:00:00 23.7 2 Sudoeste 12 Sudeste 0 938.9 0.7 25
2019-06-02 09:00:00 20 4 Sur 7 Sudeste 0 938.7 0.8 32
2019-06-02 08:00:00 16.3 2 Norte 7 Norte 0 938.5 0.7 39
2019-06-02 07:00:00 17.2 3 Nordeste 11 Nordeste 0 938.2 0.1 33
2019-06-02 06:00:00 16.7 5 Nordeste 17 Este 0 937.9 -0.5 32
2019-06-02 05:00:00 19.9 8 Este 15 Este 0 937.8 -0.7 28
2019-06-02 04:00:00 19.4 5 Este 11 Este 0 938.1 -0.2 28
2019-06-02 03:00:00 18.5 3 Norte 8 Nordeste 0 938.4 0 27
2019-06-02 02:00:00 19.7 2 Noroeste 9 Nordeste 0 938.5 0.4 24
2019-06-02 01:00:00 21.3 5 Nordeste 17 Este 0 938.3 0.5 22
2019-06-02 00:00:00 23.3 9 Este 22 Este 0 938.4 1 19
2019-06-01 23:00:00 25 12 Nordeste 20 Nordeste 0 938.1 1.1 17
2019-06-01 22:00:00 26.9 6 Nordeste 19 Nordeste 0 937.8 0.7 13
2019-06-01 21:00:00 29.7 7 Nordeste 23 Norte 0 937.4 0.1 11
2019-06-01 20:00:00 30.6 6 Norte 29 Norte 0 937 -0.7 10
2019-06-01 19:00:00 30.7 7 Nordeste 28 Norte 0 937.1 -1.3 10
2019-06-01 18:00:00 31.2 8 Norte 29 Nordeste 0 937.3 -1.6 10
2019-06-01 17:00:00 31.8 10 Nordeste 31 Noroeste 0 937.7 -1.6 11
2019-06-01 16:00:00 32.1 12 Norte 31 Nordeste 0 938.4 -1.5 12
2019-06-01 15:00:00 31.4 9 Nordeste 27 Nordeste 0 938.9 -1.5 13
2019-06-01 14:00:00 30.9 8 Nordeste 28 Norte 0 939.3 -1 16
2019-06-01 13:00:00 29.4 9 Norte 24 Norte 0 939.9 -0.6 16
2019-06-01 12:00:00 28.3 5 Nordeste 17 Norte 0 940.4 -0.1 19
2019-06-01 11:00:00 25.9 6 Nordeste 15 Nordeste 0 940.3 0.1 22
2019-06-01 10:00:00 22.2 4 Nordeste 9 Norte 0 940.5 0.7 27
2019-06-01 09:00:00 17.4 3 Este 15 Nordeste 0 940.5 0.8 35
2019-06-01 08:00:00 15.2 4 Norte 13 Norte 0 940.2 0.5 38
2019-06-01 07:00:00 14.6 5 Norte 15 Nordeste 0 939.8 0.1 39
2019-06-01 06:00:00 14.8 5 Norte 9 Norte 0 939.7 -0.1 40
2019-06-01 05:00:00 16.4 3 Nordeste 10 Este 0 939.7 -0.3 36
2019-06-01 04:00:00 16.9 4 Nordeste 16 Nordeste 0 939.7 -0.6 34
2019-06-01 03:00:00 17.1 6 Nordeste 17 Nordeste 0 939.8 -0.5 32
2019-06-01 02:00:00 17.6 3 Norte 12 Norte 0 940 0.1 32
2019-06-01 01:00:00 19.3 4 Este 10 Nordeste 0 940.3 0.9 29
2019-06-01 00:00:00 20.7 5 Nordeste 19 Nordeste 0 940.3 1.5 26
2019-05-31 23:00:00 23.3 9 Nordeste 24 Nordeste 0 939.9 1.3 21
2019-05-31 22:00:00 25.9 9 Nordeste 20 Nordeste 0 939.4 0.7 17
2019-05-31 21:00:00 28.6 10 Nordeste 25 Norte 0 938.8 0 12
2019-05-31 20:00:00 29.7 8 Nordeste 23 Este 0 938.6 -0.7 11
2019-05-31 19:00:00 30.2 9 Nordeste 23 Norte 0 938.7 -1.2 11
2019-05-31 18:00:00 29.9 6 Noroeste 27 Norte 0 938.8 -1.5 11
2019-05-31 17:00:00 30 5 Noroeste 28 Norte 0 939.3 -1.3 10
2019-05-31 16:00:00 30.5 7 Nordeste 26 Nordeste 0 939.9 -1.3 10
2019-05-31 15:00:00 30.5 10 Norte 27 Norte 0 940.3 -1.3 11
2019-05-31 14:00:00 29.6 7 Norte 26 Nordeste 0 940.6 -1.2 13
2019-05-31 13:00:00 28.4 8 Norte 26 Nordeste 0 941.2 -0.6 17
2019-05-31 12:00:00 26.3 6 Norte 15 Norte 0 941.6 -0.1 21
2019-05-31 11:00:00 24.2 5 Norte 17 Norte 0 941.8 0.1 25
2019-05-31 10:00:00 21.5 6 Norte 14 Nordeste 0 941.8 0.4 30
2019-05-31 09:00:00 17.2 5 Norte 11 Norte 0 941.7 0.5 39
2019-05-31 08:00:00 15 5 Nordeste 17 Nordeste 0 941.7 0.3 42
2019-05-31 07:00:00 13.2 8 Nordeste 14 Nordeste 0 941.4 -0.2 46
2019-05-31 06:00:00 14 0 Calma 9 Nordeste 0 941.2 -0.5 45
2019-05-31 05:00:00 15.3 2 Norte 10 Este 0 941.4 -0.5 41
2019-05-31 04:00:00 16.2 5 Nordeste 16 Nordeste 0 941.6 -0.4 38
2019-05-31 03:00:00 16.5 3 Nordeste 16 Nordeste 0 941.7 -0.1 37
2019-05-31 02:00:00 17.1 4 Nordeste 10 Este 0 941.9 0.4 34
2019-05-31 01:00:00 18.5 5 Nordeste 16 Nordeste 0 942 1.2 31
2019-05-31 00:00:00 20.4 10 Nordeste 25 Nordeste 0 941.8 1.6 27
2019-05-30 23:00:00 22.9 7 Nordeste 20 Este 0 941.5 1.9 22
2019-05-30 22:00:00 25.1 7 Nordeste 23 Nordeste 0 940.8 1 18
2019-05-30 21:00:00 27.6 10 Nordeste 28 Norte 0 940.2 0.3 13
2019-05-30 20:00:00 28.8 9 Nordeste 27 Norte 0 939.6 -0.6 12
2019-05-30 19:00:00 29 9 Nordeste 24 Norte 0 939.8 -0.7 12
2019-05-30 18:00:00 29.6 10 Nordeste 27 Nordeste 0 939.9 -1.2 12
2019-05-30 17:00:00 30.1 8 Nordeste 23 Norte 0 940.2 -1.4 12
2019-05-30 16:00:00 29.7 6 Norte 20 Este 0 940.5 -1.5 13
2019-05-30 15:00:00 28.5 8 Norte 22 Norte 0 941.1 -1.1 15
2019-05-30 14:00:00 27 10 Noroeste 25 Oeste 0 941.6 -0.9 21
2019-05-30 13:00:00 25.3 8 Noroeste 25 Noroeste 0 942 -0.5 24
2019-05-30 12:00:00 23.6 7 Norte 21 Noroeste 0 942.2 -0.1 26
2019-05-30 11:00:00 20.9 5 Noroeste 15 Noroeste 0 942.5 0.7 33
2019-05-30 10:00:00 17.6 5 Noroeste 13 Norte 0 942.5 1 42
2019-05-30 09:00:00 14.9 4 Noroeste 9 Norte 0 942.3 1 48
2019-05-30 08:00:00 13.3 3 Norte 8 Nordeste 0 941.8 0.8 52
2019-05-30 07:00:00 12.3 3 Norte 9 Nordeste 0 941.5 0.5 53
2019-05-30 06:00:00 13.2 5 Norte 9 Nordeste 0 941.3 0.3 49
2019-05-30 05:00:00 15 3 Noroeste 13 Norte 0 941 0 42
2019-05-30 04:00:00 16.2 6 Nordeste 21 Este 0 941 0 36
2019-05-30 03:00:00 18.8 7 Nordeste 28 Norte 0 941 0.1 30
2019-05-30 02:00:00 20.2 9 Norte 28 Norte 0 941 0.6 28
2019-05-30 01:00:00 20.3 8 Norte 26 Norte 0 941 1.4 28
2019-05-30 00:00:00 21.2 9 Norte 22 Norte 0 940.9 1.8 26
2019-05-29 23:00:00 22 7 Norte 18 Norte 0 940.4 1.7 25
2019-05-29 22:00:00 23.4 7 Norte 24 Norte 0 939.6 0.8 22
2019-05-29 21:00:00 25.1 9 Norte 28 Noroeste 0 939.1 0.3 19
2019-05-29 20:00:00 25.8 11 Noroeste 33 Noroeste 0 938.7 -0.4 19
2019-05-29 19:00:00 26 10 Noroeste 28 Norte 0 938.8 -0.5 18
2019-05-29 18:00:00 25.8 10 Noroeste 35 Norte 0 938.8 -1 17
2019-05-29 17:00:00 26.1 11 Norte 30 Noroeste 0 939.1 -1.1 14
2019-05-29 16:00:00 25.1 13 Norte 35 Norte 0 939.3 -1.2 14
2019-05-29 15:00:00 24.6 10 Norte 31 Norte 0 939.8 -0.6 16
2019-05-29 14:00:00 23 8 Norte 26 Noroeste 0 940.2 -0.4 20
2019-05-29 13:00:00 20.9 11 Norte 31 Norte 0 940.5 0 24
2019-05-29 12:00:00 19.1 13 Norte 31 Norte 0 940.4 0.2 26
2019-05-29 11:00:00 18.1 11 Norte 24 Norte 0 940.6 0.9 29
2019-05-29 10:00:00 15.7 8 Norte 25 Noroeste 0 940.5 1.3 35
2019-05-29 09:00:00 12.9 7 Noroeste 23 Noroeste 0 940.2 1.5 45
2019-05-29 08:00:00 12.3 3 Norte 15 Norte 0 939.7 1.2 48
2019-05-29 07:00:00 12 7 Norte 19 Noroeste 0 939.2 1.2 47
2019-05-29 06:00:00 13.2 8 Noroeste 19 Noroeste 0 938.7 0.8 44
2019-05-29 05:00:00 15 3 Norte 13 Noroeste 0 938.5 0.7 39
2019-05-29 04:00:00 16.5 6 Norte 30 Norte 0 938 0.6 33
2019-05-29 03:00:00 17.6 10 Norte 29 Norte 0 937.9 1.3 31
2019-05-29 02:00:00 18.1 10 Norte 25 Norte 0 937.8 2.2 32
2019-05-29 01:00:00 19.1 8 Norte 26 Norte 0 937.4 2.5 25
2019-05-29 00:00:00 21.4 11 Norte 26 Norte 0 936.6 2.3 20
2019-05-28 23:00:00 22.4 5 Norte 18 Nordeste 0 935.6 1.9 19
2019-05-28 22:00:00 24.6 6 Norte 30 Norte 0 934.9 1.5 16
2019-05-28 21:00:00 26.3 10 Norte 31 Noroeste 0 934.3 1 14
2019-05-28 20:00:00 27.3 11 Norte 30 Noroeste 0 933.7 0.2 14
2019-05-28 19:00:00 28.1 12 Noroeste 32 Noroeste 0 933.4 -0.3 17
2019-05-28 18:00:00 27.7 9 Noroeste 24 Noroeste 0 933.3 -0.5 20
2019-05-28 17:00:00 27.9 10 Noroeste 24 Noroeste 0 933.5 -0.6 20
2019-05-28 16:00:00 27.9 10 Noroeste 26 Noroeste 0 933.7 -0.4 22
2019-05-28 15:00:00 27.5 9 Noroeste 23 Noroeste 0 933.8 -0.3 23
2019-05-28 14:00:00 26.8 10 Norte 26 Norte 0 934.1 0 25
2019-05-28 13:00:00 25.8 10 Norte 26 Norte 0 934.1 0.1 26
2019-05-28 12:00:00 24.1 8 Norte 26 Norte 0 934.1 0.6 32
2019-05-28 11:00:00 21.4 6 Noroeste 16 Norte 0 934.1 1.2 40
2019-05-28 10:00:00 18.4 8 Noroeste 15 Noroeste 0 934 1.4 49
2019-05-28 09:00:00 16.2 5 Noroeste 11 Noroeste 0 933.5 1.3 56
2019-05-28 08:00:00 14.7 0 Calma 12 Nordeste 0 932.9 0.5 60
2019-05-28 07:00:00 14.6 4 Nordeste 16 Nordeste 0 932.6 0.2 59
2019-05-28 06:00:00 15 5 Nordeste 13 Nordeste 0 932.2 0.2 58
2019-05-28 05:00:00 15.6 0 Calma 9 Norte 0 932.4 0.4 49
2019-05-28 04:00:00 17.2 5 Norte 14 Norte 0 932.4 0.6 44
2019-05-28 03:00:00 18.7 6 Norte 24 Norte 0 932 0.3 38
2019-05-28 02:00:00 21.4 8 Noroeste 18 Noroeste 0 932 0.8 29
2019-05-28 01:00:00 22.9 4 Norte 17 Norte 0 931.8 1.1 26
2019-05-28 00:00:00 24.4 6 Norte 13 Noroeste 0 931.7 1.1 26
2019-05-27 23:00:00 25.3 0 Calma 10 Sudoeste 0 931.2 0.9 27
2019-05-27 22:00:00 26.5 3 Oeste 17 Oeste 0 930.7 0.2 22
2019-05-27 21:00:00 28.2 8 Oeste 20 Oeste 0 930.6 -0.1 19
2019-05-27 20:00:00 28.4 4 Oeste 21 Oeste 0 930.3 -0.9 17
2019-05-27 19:00:00 28.8 6 Sudoeste 30 Oeste 0 930.5 -1.6 16
2019-05-27 18:00:00 29.2 6 Oeste 22 Oeste 0 930.7 -2 16
2019-05-27 17:00:00 28.9 7 Oeste 21 Oeste 0 931.2 -2.2 18
2019-05-27 16:00:00 28.8 6 Sudoeste 24 Sudoeste 0 932.1 -2 18
2019-05-27 15:00:00 28.4 5 Oeste 19 Oeste 0 932.7 -1.6 20
2019-05-27 14:00:00 27.2 6 Noroeste 17 Norte 0 933.4 -1.1 22
2019-05-27 13:00:00 25.9 5 Noroeste 15 Norte 0 934.1 -0.8 24
2019-05-27 12:00:00 24.4 5 Noroeste 15 Noroeste 0 934.3 -0.5 24
2019-05-27 11:00:00 22 6 Noroeste 17 Noroeste 0 934.5 0 30
2019-05-27 10:00:00 19.1 4 Noroeste 8 Noroeste 0 934.9 0.8 35
2019-05-27 09:00:00 15 3 Norte 6 Nordeste 0 934.8 0.7 40
2019-05-27 08:00:00 12.7 0 Calma 5 Norte 0 934.5 0.3 48
2019-05-27 07:00:00 11.9 0 Calma 5 Sur 0 934.1 -0.5 49
2019-05-27 06:00:00 12.8 0 Calma 5 Norte 0 934.1 -0.8 45
2019-05-27 05:00:00 13.6 0 Calma 4 Sur 0 934.2 -1 42
2019-05-27 04:00:00 14.3 0 Calma 4 Sur 0 934.6 -0.7 40
2019-05-27 03:00:00 15.4 4 Norte 6 Norte 0 934.9 -0.5 37
2019-05-27 02:00:00 16.5 4 Norte 5 Norte 0 935.2 0.1 34
2019-05-27 01:00:00 17.7 0 Calma 4 Sudeste 0 935.3 0.6 32
2019-05-27 00:00:00 18.9 3 Sudeste 5 Sudeste 0 935.4 0.8 28
2019-05-26 23:00:00 21.2 0 Calma 13 Norte 0 935.1 0.7 24
2019-05-26 22:00:00 23.3 5 Norte 25 Noroeste 0 934.7 0 19
2019-05-26 21:00:00 24.8 11 Noroeste 24 Noroeste 0 934.6 -0.3 16
2019-05-26 20:00:00 25.4 8 Noroeste 27 Noroeste 0 934.4 -1.1 16
2019-05-26 19:00:00 25.4 9 Noroeste 29 Norte 0 934.7 -1.3 15
2019-05-26 18:00:00 25.1 8 Noroeste 27 Noroeste 0 934.9 -1.4 16
2019-05-26 17:00:00 25 10 Norte 27 Noroeste 0 935.5 -1.3 16
2019-05-26 16:00:00 23.8 11 Noroeste 29 Noroeste 0 936 -1.3 17
2019-05-26 15:00:00 23.7 10 Noroeste 26 Norte 0 936.3 -1.4 18
2019-05-26 14:00:00 22.5 10 Norte 24 Noroeste 0 936.8 -1 23
2019-05-26 13:00:00 20.5 10 Noroeste 24 Norte 0 937.3 -0.7 30
2019-05-26 12:00:00 18.6 9 Noroeste 21 Noroeste 0 937.7 -0.1 36
2019-05-26 11:00:00 17.1 6 Noroeste 21 Noroeste 0 937.8 0.5 39
2019-05-26 10:00:00 15.3 7 Noroeste 19 Oeste 0 938 1 47
2019-05-26 09:00:00 12.4 10 Norte 24 Noroeste 0 937.8 1 60
2019-05-26 08:00:00 11.6 9 Norte 23 Noroeste 0 937.3 0.7 62
2019-05-26 07:00:00 11.9 10 Noroeste 23 Noroeste 0 937 0.2 61
2019-05-26 06:00:00 12.9 4 Noroeste 14 Noroeste 0 936.8 -0.2 56
2019-05-26 05:00:00 14 3 Oeste 14 Noroeste 0 936.6 -0.6 52
2019-05-26 04:00:00 15.3 4 Noroeste 15 Noroeste 0 936.8 -0.5 46
2019-05-26 03:00:00 15.2 0 Calma 7 Norte 0 937 -0.3 46
2019-05-26 02:00:00 15.6 2 Sur 4 Este 0 937.2 0.5 43
2019-05-26 01:00:00 17 2 Oeste 14 Noroeste 0 937.3 1.1 37
2019-05-26 00:00:00 19.1 5 Norte 15 Noroeste 0 937.3 1.6 32
2019-05-25 23:00:00 20.5 5 Noroeste 18 Noroeste 0 936.7 1.4 28
2019-05-25 22:00:00 21.8 7 Noroeste 23 Noroeste 0 936.2 0.9 25
2019-05-25 21:00:00 23 9 Noroeste 26 Noroeste 0 935.7 0.3 24
2019-05-25 20:00:00 23.7 9 Oeste 21 Noroeste 0 935.3 -0.1 24
2019-05-25 19:00:00 23.2 9 Norte 25 Norte 0 935.3 -0.6 25
2019-05-25 18:00:00 23.3 6 Noroeste 30 Norte 0 935.4 -1 24
2019-05-25 17:00:00 23.8 9 Norte 26 Norte 0 935.4 -1.4 25
2019-05-25 16:00:00 23.1 10 Norte 25 Noroeste 0 935.9 -1.2 27
2019-05-25 15:00:00 22.2 9 Noroeste 27 Norte 0 936.4 -0.7 29
2019-05-25 14:00:00 21.3 6 Noroeste 27 Norte 0 936.8 -0.3 32
2019-05-25 13:00:00 19.7 10 Norte 26 Norte 0 937.1 0.3 37
2019-05-25 12:00:00 17.7 10 Norte 24 Noroeste 0 937.1 0.5 44
2019-05-25 11:00:00 15.8 11 Norte 27 Norte 0 937.1 1 52
2019-05-25 10:00:00 13.8 7 Noroeste 21 Norte 0 936.8 1.2 58
2019-05-25 09:00:00 11.6 9 Noroeste 22 Noroeste 0 936.6 1.2 65
2019-05-25 08:00:00 10.9 8 Noroeste 27 Noroeste 0 936.1 0.9 68
2019-05-25 07:00:00 10.8 9 Norte 26 Norte 0 935.6 0.5 69
2019-05-25 06:00:00 11.6 9 Norte 23 Norte 0 935.4 0.5 74
2019-05-25 05:00:00 12.5 6 Noroeste 15 Noroeste 0 935.2 -0.1 77
2019-05-25 04:00:00 12.8 2 Sudoeste 12 Nordeste 0 935.1 0.2 72
2019-05-25 03:00:00 13.7 5 Nordeste 13 Norte 0 934.9 0.4 70
2019-05-25 02:00:00 14.3 5 Norte 12 Norte 0 935.3 1.3 71
2019-05-25 01:00:00 15.1 5 Nordeste 20 Nordeste 0 934.9 1.8 71
2019-05-25 00:00:00 16.1 9 Nordeste 23 Nordeste 0 934.5 1.9 67
2019-05-24 23:00:00 17.9 8 Nordeste 23 Nordeste 0 934 2 59
2019-05-24 22:00:00 19.7 8 Nordeste 23 Norte 0 933.1 1.4 48
2019-05-24 21:00:00 21.5 13 Norte 32 Norte 0 932.6 1.6 39
2019-05-24 20:00:00 22.9 15 Norte 41 Noroeste 0 932 0.9 35
2019-05-24 19:00:00 23.3 14 Norte 40 Norte 0 931.7 0.3 35
2019-05-24 18:00:00 25.2 11 Noroeste 35 Noroeste 0 931 -0.7 24
2019-05-24 17:00:00 25.7 11 Oeste 33 Noroeste 0 931.1 -1.2 24
2019-05-24 16:00:00 25.7 9 Noroeste 23 Oeste 0 931.4 -1.5 28
2019-05-24 15:00:00 25.4 5 Sudoeste 18 Norte 0 931.7 -1.4 26
2019-05-24 14:00:00 24.3 4 Norte 15 Este 0 932.3 -0.9 29
2019-05-24 13:00:00 22.2 4 Oeste 13 Noroeste 0 932.9 -0.2 34
2019-05-24 12:00:00 21.4 4 Norte 9 Norte 0 933.1 0.1 39
2019-05-24 11:00:00 18.5 2 Sudoeste 8 Noroeste 0 933.2 0 48
2019-05-24 10:00:00 17 2 Sur 6 Sur 0 933.1 0.1 49
2019-05-24 09:00:00 15.7 4 Sudeste 6 Sudeste 0 933 -0.3 52
2019-05-24 08:00:00 15.5 2 Este 6 Sudeste 0 933.2 -0.3 50
2019-05-24 07:00:00 15.3 3 Sudeste 8 Sudeste 0 933 -0.7 48
2019-05-24 06:00:00 16.4 6 Sudeste 9 Sudeste 0 933.3 -0.7 43
2019-05-24 05:00:00 17.8 5 Sur 13 Sur 0 933.5 -1 39
2019-05-24 04:00:00 17.9 6 Sur 13 Sudeste 0 933.7 -1 36
2019-05-24 03:00:00 19.2 6 Sur 13 Sur 0 934 -0.8 32
2019-05-24 02:00:00 20 4 Sur 10 Sudoeste 0 934.5 -0.1 32
2019-05-24 01:00:00 20.8 3 Sudeste 8 Sudeste 0 934.7 0.7 31
2019-05-24 00:00:00 22.9 2 Oeste 13 Sur 0 934.8 0.9 27
2019-05-23 23:00:00 24 4 Sur 7 Sudoeste 0 934.6 0.7 27
2019-05-23 22:00:00 25.3 0 Calma 18 Sur 0 934 -0.1 24
2019-05-23 21:00:00 26.5 6 Sudoeste 25 Sudoeste 0 933.9 -0.8 22
2019-05-23 20:00:00 27.2 3 Oeste 19 Sudoeste 0 933.9 -1.1 21
2019-05-23 19:00:00 28.3 6 Sudoeste 19 Sudoeste 0 934.1 -1.4 19
2019-05-23 18:00:00 27.8 6 Sudoeste 21 Sudoeste 0 934.7 -1.4 20
2019-05-23 17:00:00 27.9 8 Sudoeste 27 Sudoeste 0 935 -1.6 20
2019-05-23 16:00:00 28 6 Sur 23 Sudoeste 0 935.5 -1.4 18
2019-05-23 15:00:00 27.7 7 Sudoeste 27 Sur 0 936.1 -1.2 18
2019-05-23 14:00:00 27.1 6 Sudoeste 25 Sudoeste 0 936.6 -1 19
2019-05-23 13:00:00 26.5 8 Sur -- -- -- 936.9 -0.7 20
2019-05-23 12:00:00 25.8 6 Sur 14 Sur 0 937.3 0.1 25
2019-05-23 11:00:00 23.9 6 Sur 15 Sur 0 937.6 0.6 27
2019-05-23 10:00:00 21.2 7 Sudeste 15 Sur 0 937.6 0.9 34
2019-05-23 09:00:00 18.6 5 Sudeste 13 Sudeste 0 937.2 0.5 41
2019-05-23 08:00:00 16.3 3 Sudeste 9 Este 0 937 0.5 45
2019-05-23 07:00:00 16.5 5 Este 10 Este 0 936.7 0.2 39
2019-05-23 06:00:00 16.4 2 Nordeste 6 Nordeste 0 936.7 0.2 37
2019-05-23 05:00:00 17 4 Sur 11 Sudeste 0 936.5 -0.3 34
2019-05-23 04:00:00 16.9 3 Sudeste 14 Sur 0 936.5 -0.1 35
2019-05-23 03:00:00 18.1 3 Sudeste 6 Sur 0 936.5 -0.1 33
2019-05-23 02:00:00 18.6 4 Sudeste 9 Sudeste 0 936.8 0.5 33
2019-05-23 01:00:00 19.5 2 Este 8 Sudeste 0 936.6 1 31
2019-05-23 00:00:00 21.4 4 Sur 9 Sudeste 0 936.6 1.3 27
2019-05-22 23:00:00 22.6 3 Sur 7 Sur 0 936.3 1.2 27
2019-05-22 22:00:00 24.5 4 Sur 12 Sur 0 935.6 0.6 23
2019-05-22 21:00:00 25.9 4 Oeste 9 Oeste 0 935.3 0 19
2019-05-22 20:00:00 26.4 3 Sudoeste 15 Sur 0 935.1 -0.4 18
2019-05-22 19:00:00 26.8 5 Sur 18 Sudeste 0 935 -0.9 18
2019-05-22 18:00:00 27.7 8 Sur 23 Sur 0 935.3 -1 17
2019-05-22 17:00:00 27.7 9 Sur 20 Sudoeste 0 935.5 -1.1 17
2019-05-22 16:00:00 27 4 Sudeste 16 Sudeste 0 935.9 -1 18
2019-05-22 15:00:00 26.7 4 Noroeste 16 Sudoeste 0 936.3 -0.7 18
2019-05-22 14:00:00 25.6 4 Oeste 14 Sur 0 936.6 -0.3 21
2019-05-22 13:00:00 24.6 5 Oeste 17 Sudoeste 0 936.9 0.2 25
2019-05-22 12:00:00 24 4 Sudoeste 13 Sur 0 937 0.6 27
2019-05-22 11:00:00 22.1 3 Este 11 Sudeste 0 936.9 0.8 33
2019-05-22 10:00:00 19.1 3 Sur 7 Sur 0 936.7 1.1 42
2019-05-22 09:00:00 14.5 3 Norte 8 Norte 0 936.4 1 56
2019-05-22 08:00:00 12.2 3 Norte 7 Norte 0 936.1 0.8 60
2019-05-22 07:00:00 12.2 4 Norte 7 Norte 0 935.6 0.3 55
2019-05-22 06:00:00 14.2 4 Este 7 Este 0 935.4 0.3 48
2019-05-22 05:00:00 15.1 3 Sudeste 6 Sudeste 0 935.3 0.1 45
2019-05-22 04:00:00 15.3 3 Sur 12 Sudeste 0 935.3 0.3 44
2019-05-22 03:00:00 15 3 Este 9 Sudeste 0 935.1 0.2 44
2019-05-22 02:00:00 16.1 3 Sudeste 8 Sur 0 935.2 0.6 41
2019-05-22 01:00:00 16.9 4 Sur 10 Sudeste 0 935 1.1 38
2019-05-22 00:00:00 17.9 6 Sudeste 8 Sudeste 0 934.9 1.4 35